Time;durP1;ratioP1;P1;durP2;ratioP2;P2;SDS_P1;SDS_P2;PMS_P1;PMS_P2;Temp;Humidity;BMP_temperature;BMP_pressure;BME280_temperature;BME280_humidity;BME280_pressure;Samples;Min_cycle;Max_cycle;Signal;HPM_P1;HPM_P2
2021/11/08 00:04:34;;;;;;;9.20;6.70;;;10.70;99.90;;;;;;10333509;23;20600;-81
2021/11/08 00:09:37;;;;;;;8.77;6.57;;;10.70;99.90;;;;;;10339580;28;20282;-81
2021/11/08 00:14:43;;;;;;;10.60;7.73;;;10.70;99.90;;;;;;10345059;28;20657;-81
2021/11/08 00:19:57;;;;;;;8.50;6.20;;;10.70;99.90;;;;;;10347426;28;20206;-81
2021/11/08 00:25:01;;;;;;;8.40;7.17;;;10.70;99.90;;;;;;10350086;28;20234;-81
2021/11/08 00:30:06;;;;;;;8.57;6.80;;;10.70;99.90;;;;;;10364498;28;20202;-81
2021/11/08 00:35:09;;;;;;;13.73;7.10;;;10.70;99.90;;;;;;10343622;28;20254;-80
2021/11/08 00:40:12;;;;;;;11.30;6.37;;;10.70;99.90;;;;;;10368063;28;20264;-81
2021/11/08 00:45:16;;;;;;;8.60;5.97;;;10.60;99.90;;;;;;10339003;28;20585;-81
2021/11/08 00:50:19;;;;;;;8.37;6.87;;;10.50;99.90;;;;;;10369640;28;20206;-81
2021/11/08 00:55:22;;;;;;;10.47;6.60;;;10.50;99.90;;;;;;10347426;28;20665;-81
2021/11/08 01:00:29;;;;;;;6.50;5.90;;;10.40;99.90;;;;;;10343341;28;20253;-81
2021/11/08 01:05:31;;;;;;;10.80;6.20;;;10.30;99.90;;;;;;10346457;28;20241;-81
2021/11/08 01:10:33;;;;;;;6.40;5.80;;;10.20;99.90;;;;;;10350731;28;20702;-82
2021/11/08 01:15:37;;;;;;;7.33;6.03;;;10.00;99.90;;;;;;10343142;28;20198;-81
2021/11/08 01:20:45;;;;;;;5.97;5.30;;;9.90;99.90;;;;;;10335379;28;20251;-81
2021/11/08 01:25:56;;;;;;;8.07;6.00;;;9.70;99.90;;;;;;10330707;28;20239;-81
2021/11/08 01:31:00;;;;;;;6.23;5.63;;;9.50;99.90;;;;;;10372903;28;20234;-81
2021/11/08 01:36:14;;;;;;;8.37;6.10;;;9.40;99.90;;;;;;10356027;28;20209;-81
2021/11/08 01:41:18;;;;;;;7.40;6.20;;;9.20;99.90;;;;;;10370451;28;20246;-81
2021/11/08 01:46:23;;;;;;;6.47;5.83;;;9.10;99.90;;;;;;10350965;28;20222;-81
2021/11/08 01:51:25;;;;;;;8.23;6.03;;;9.00;99.90;;;;;;10369284;28;20766;-81
2021/11/08 01:56:27;;;;;;;12.40;6.40;;;8.90;99.90;;;;;;10321251;28;20722;-81
2021/11/08 02:01:31;;;;;;;8.17;5.60;;;8.80;99.90;;;;;;10342136;28;20276;-81
2021/11/08 02:06:33;;;;;;;6.87;4.97;;;8.60;99.90;;;;;;10354350;28;20265;-81
2021/11/08 02:11:36;;;;;;;6.37;5.53;;;8.50;99.90;;;;;;10355121;28;20227;-81
2021/11/08 02:16:40;;;;;;;7.27;5.53;;;8.40;99.90;;;;;;10354578;28;20209;-81
2021/11/08 02:21:43;;;;;;;8.03;6.13;;;8.40;99.90;;;;;;10384104;28;20235;-81
2021/11/08 02:26:46;;;;;;;7.70;5.90;;;8.40;99.90;;;;;;10361237;28;20203;-81
2021/11/08 02:31:50;;;;;;;8.20;6.03;;;8.30;99.90;;;;;;10354396;28;20230;-82
2021/11/08 02:36:53;;;;;;;5.97;5.27;;;8.30;99.90;;;;;;10363867;28;20490;-81
2021/11/08 02:41:55;;;;;;;8.70;6.10;;;8.20;99.90;;;;;;10360773;28;20218;-81
2021/11/08 02:46:57;;;;;;;9.20;6.00;;;8.10;99.90;;;;;;10369669;28;20210;-81
2021/11/08 02:52:04;;;;;;;9.57;6.30;;;8.10;99.90;;;;;;10340738;28;20254;-81
2021/11/08 02:57:07;;;;;;;12.40;6.80;;;8.00;99.90;;;;;;10356717;28;20215;-81
2021/11/08 03:02:09;;;;;;;10.77;6.20;;;7.90;99.90;;;;;;10369791;28;20261;-80
2021/11/08 03:07:13;;;;;;;12.23;5.37;;;7.90;99.90;;;;;;10375699;28;20202;-80
2021/11/08 03:12:18;;;;;;;7.70;5.83;;;7.90;99.90;;;;;;10356508;28;20242;-80
2021/11/08 03:17:23;;;;;;;8.33;6.03;;;7.90;99.90;;;;;;10352931;28;20230;-80
2021/11/08 03:22:31;;;;;;;10.90;6.47;;;7.90;99.90;;;;;;10348004;28;20214;-80
2021/11/08 03:27:44;;;;;;;6.40;5.80;;;7.90;99.90;;;;;;10364711;28;20313;-80
2021/11/08 03:32:47;;;;;;;12.30;6.47;;;7.90;99.90;;;;;;10326116;28;20281;-80
2021/11/08 03:37:51;;;;;;;9.80;6.40;;;7.90;99.90;;;;;;10337151;28;20260;-80
2021/11/08 03:42:55;;;;;;;9.30;6.03;;;7.80;99.90;;;;;;10348576;28;20254;-80
2021/11/08 03:47:59;;;;;;;6.40;5.70;;;7.80;99.90;;;;;;10354586;28;20202;-80
2021/11/08 03:53:03;;;;;;;8.17;6.50;;;7.80;99.90;;;;;;10318695;28;20321;-80
2021/11/08 03:58:06;;;;;;;6.90;5.93;;;7.80;99.90;;;;;;10352189;28;20218;-80
2021/11/08 04:03:09;;;;;;;10.03;5.90;;;7.80;99.90;;;;;;10340840;28;20242;-80
2021/11/08 04:08:17;;;;;;;8.10;6.10;;;7.70;99.90;;;;;;10328779;28;20208;-80
2021/11/08 04:13:20;;;;;;;7.57;5.40;;;7.70;99.90;;;;;;10335302;28;20314;-80
2021/11/08 04:18:25;;;;;;;8.20;5.87;;;7.70;99.90;;;;;;10350701;28;20257;-80
2021/11/08 04:23:30;;;;;;;9.33;5.83;;;7.70;99.90;;;;;;10329840;28;20730;-80
2021/11/08 04:28:32;;;;;;;8.80;6.50;;;7.60;99.90;;;;;;10323157;28;20207;-80
2021/11/08 04:33:41;;;;;;;8.37;5.97;;;7.60;99.90;;;;;;10339161;28;20257;-80
2021/11/08 04:38:54;;;;;;;7.40;5.37;;;7.60;99.90;;;;;;10362455;28;20206;-80
2021/11/08 04:44:10;;;;;;;7.40;6.20;;;7.60;99.90;;;;;;10332719;28;20232;-80
2021/11/08 04:49:25;;;;;;;9.23;5.53;;;7.60;99.90;;;;;;10371177;28;20645;-80
2021/11/08 04:54:37;;;;;;;13.27;5.40;;;7.60;99.90;;;;;;10331662;28;20322;-80
2021/11/08 05:21:28;;;;;;;13.20;5.67;;;7.50;99.90;;;;;;10347069;28;20676;-80
2021/11/08 05:31:56;;;;;;;11.90;5.50;;;7.40;99.90;;;;;;10321688;28;20249;-80
2021/11/08 05:36:58;;;;;;;5.87;5.27;;;7.40;99.90;;;;;;10362585;28;20297;-80
2021/11/08 05:42:03;;;;;;;7.10;6.10;;;7.40;99.90;;;;;;10334604;28;20230;-80
2021/11/08 05:47:06;;;;;;;8.93;6.30;;;7.40;99.90;;;;;;10371600;28;20214;-80
2021/11/08 05:52:08;;;;;;;10.27;6.63;;;7.40;99.90;;;;;;10354586;28;20714;-80
2021/11/08 05:57:39;;;;;;;13.10;10.57;;;7.40;99.90;;;;;;10364631;28;20266;-80
2021/11/08 06:50:42;;;;;;;7.57;5.70;;;7.50;99.90;;;;;;10388939;28;20245;-81
2021/11/08 06:55:46;;;;;;;8.83;6.43;;;7.60;99.90;;;;;;10397662;28;20203;-80
2021/11/08 07:00:51;;;;;;;6.37;4.53;;;7.60;99.90;;;;;;10360144;28;20239;-80
2021/11/08 07:05:53;;;;;;;8.20;4.80;;;7.70;99.90;;;;;;10359133;28;20289;-81
2021/11/08 07:10:55;;;;;;;9.73;6.53;;;7.70;99.90;;;;;;10401082;28;20285;-81
2021/11/08 07:15:59;;;;;;;6.67;5.43;;;7.70;99.90;;;;;;10372390;28;20217;-80
2021/11/08 07:21:01;;;;;;;7.47;5.93;;;7.70;99.90;;;;;;10389733;28;20281;-80
2021/11/08 07:26:03;;;;;;;10.37;6.60;;;7.70;99.90;;;;;;10380749;28;20603;-80
2021/11/08 07:31:08;;;;;;;7.97;6.20;;;7.70;99.90;;;;;;10364155;28;20261;-80
2021/11/08 07:36:11;;;;;;;9.67;5.97;;;7.70;99.90;;;;;;10365067;28;20207;-80
2021/11/08 07:41:13;;;;;;;8.97;6.20;;;7.80;99.90;;;;;;10348955;28;20230;-80
2021/11/08 07:46:18;;;;;;;9.03;6.00;;;7.80;99.90;;;;;;10363605;28;20253;-80
2021/11/08 07:51:21;;;;;;;7.70;6.67;;;7.80;99.90;;;;;;10364344;28;20321;-80
2021/11/08 07:56:23;;;;;;;8.33;7.30;;;7.80;99.90;;;;;;10379441;28;20210;-80
2021/11/08 08:01:27;;;;;;;12.67;6.90;;;7.90;99.90;;;;;;10377954;28;20289;-80
2021/11/08 08:06:29;;;;;;;11.70;7.40;;;8.00;99.90;;;;;;10387167;28;20222;-80
2021/11/08 08:11:31;;;;;;;11.00;7.97;;;8.00;99.90;;;;;;10358876;28;20236;-80
2021/11/08 08:16:35;;;;;;;13.83;8.90;;;8.10;99.90;;;;;;10372560;28;20600;-80
2021/11/08 08:21:37;;;;;;;12.30;9.00;;;8.10;99.90;;;;;;10383586;28;20637;-80
2021/11/08 08:26:41;;;;;;;14.60;11.80;;;8.20;99.90;;;;;;10357717;28;20793;-80
2021/11/08 08:31:47;;;;;;;13.73;10.03;;;8.30;99.90;;;;;;10358927;28;20584;-80
2021/11/08 08:36:51;;;;;;;12.57;11.27;;;8.30;99.90;;;;;;10366053;28;20732;-80
2021/11/08 08:41:54;;;;;;;16.73;11.87;;;8.40;99.90;;;;;;10369353;28;20599;-80
2021/11/08 08:46:58;;;;;;;17.87;12.43;;;8.50;99.90;;;;;;10366953;28;20358;-80
2021/11/08 08:52:00;;;;;;;20.07;12.63;;;8.60;99.90;;;;;;10361732;28;20286;-80
2021/11/08 08:57:02;;;;;;;20.23;12.13;;;8.70;99.90;;;;;;10386219;28;20226;-80
2021/11/08 09:02:06;;;;;;;19.80;13.00;;;8.80;99.90;;;;;;10362761;28;20321;-80
2021/11/08 09:07:09;;;;;;;13.00;10.90;;;9.00;99.90;;;;;;10368295;28;20710;-80
2021/11/08 09:12:12;;;;;;;19.07;11.30;;;9.10;99.90;;;;;;10367285;28;20237;-80
2021/11/08 09:17:15;;;;;;;10.60;8.37;;;9.30;99.90;;;;;;10375871;28;20202;-79
2021/11/08 09:22:17;;;;;;;13.87;8.90;;;9.30;99.90;;;;;;10344391;28;20230;-80
2021/11/08 09:27:20;;;;;;;12.17;9.80;;;9.40;99.90;;;;;;10307808;28;20227;-80
2021/11/08 09:32:23;;;;;;;14.23;12.03;;;9.50;99.90;;;;;;10332892;28;20679;-80
2021/11/08 09:37:31;;;;;;;18.20;12.67;;;9.50;99.90;;;;;;10336729;28;20227;-80
2021/11/08 09:42:35;;;;;;;17.73;12.33;;;9.60;99.90;;;;;;10351506;28;20254;-80
2021/11/08 09:47:39;;;;;;;17.00;12.93;;;9.70;99.90;;;;;;10340504;28;20259;-80
2021/11/08 09:52:44;;;;;;;17.60;11.07;;;9.80;99.90;;;;;;10332773;28;20223;-80
2021/11/08 09:57:46;;;;;;;15.10;12.33;;;9.90;99.90;;;;;;10352189;28;20203;-80
2021/11/08 10:02:54;;;;;;;16.43;11.80;;;9.90;99.90;;;;;;10363459;28;20234;-80
2021/11/08 10:07:57;;;;;;;15.43;10.30;;;10.00;99.90;;;;;;10351299;28;20258;-80
2021/11/08 10:13:08;;;;;;;16.70;10.77;;;10.10;99.90;;;;;;10361710;28;20698;-80
2021/11/08 10:18:12;;;;;;;15.87;10.10;;;10.20;99.90;;;;;;10353862;28;20207;-81
2021/11/08 10:23:17;;;;;;;18.17;10.27;;;10.50;99.90;;;;;;10367863;28;20257;-81
2021/11/08 10:28:22;;;;;;;13.93;10.03;;;10.80;99.90;;;;;;10359055;28;20218;-81
2021/11/08 10:33:31;;;;;;;17.63;10.57;;;10.90;99.90;;;;;;10367688;28;20233;-80
2021/11/08 10:38:35;;;;;;;18.13;8.67;;;11.00;99.90;;;;;;10368395;28;20211;-80
2021/11/08 10:43:38;;;;;;;10.50;8.43;;;11.10;99.90;;;;;;10367506;28;20293;-81
2021/11/08 10:48:45;;;;;;;11.27;8.63;;;11.20;99.90;;;;;;10379085;28;20651;-81
2021/11/08 10:53:51;;;;;;;20.43;9.27;;;11.10;99.90;;;;;;10374286;28;20305;-81
2021/11/08 10:58:55;;;;;;;14.40;9.33;;;11.10;99.90;;;;;;10357832;28;20584;-81
2021/11/08 11:04:00;;;;;;;10.70;7.30;;;11.20;99.90;;;;;;10356494;28;20325;-81
2021/11/08 11:09:10;;;;;;;14.73;7.70;;;11.20;99.90;;;;;;10333660;28;20215;-81
2021/11/08 11:14:12;;;;;;;14.10;8.10;;;11.20;99.90;;;;;;10364454;28;20535;-81
2021/11/08 11:19:19;;;;;;;13.20;8.53;;;11.20;99.90;;;;;;10381810;28;20289;-81
2021/11/08 11:24:32;;;;;;;11.20;7.80;;;11.20;99.90;;;;;;10381663;28;20584;-81
2021/11/08 11:29:34;;;;;;;11.43;7.77;;;11.20;99.90;;;;;;10346527;28;20297;-81
2021/11/08 11:34:41;;;;;;;12.33;8.30;;;11.20;99.90;;;;;;10363794;28;20248;-81
2021/11/08 11:39:43;;;;;;;14.00;7.30;;;11.10;99.90;;;;;;10352776;28;20211;-81
2021/11/08 11:44:48;;;;;;;12.87;7.83;;;10.90;99.90;;;;;;10378695;28;20327;-80
2021/11/08 11:49:52;;;;;;;11.93;7.47;;;10.90;99.90;;;;;;10383324;28;20257;-81
2021/11/08 11:54:54;;;;;;;10.60;7.30;;;10.80;99.90;;;;;;10373591;28;20230;-81
2021/11/08 11:59:57;;;;;;;14.80;7.63;;;10.80;99.90;;;;;;10376489;28;20301;-80
2021/11/08 12:05:00;;;;;;;12.33;8.03;;;10.70;99.90;;;;;;10395949;28;20245;-80
2021/11/08 12:10:05;;;;;;;12.37;7.60;;;10.60;99.90;;;;;;10361745;28;20281;-80
2021/11/08 12:15:09;;;;;;;15.93;8.17;;;10.60;99.90;;;;;;10375075;28;20215;-80
2021/11/08 12:20:15;;;;;;;16.40;6.50;;;10.60;99.90;;;;;;10351164;28;20726;-80
2021/11/08 12:25:20;;;;;;;12.87;6.90;;;10.60;99.90;;;;;;10342179;28;20260;-80
2021/11/08 12:30:27;;;;;;;8.47;6.17;;;10.60;99.90;;;;;;10365139;28;20213;-80
2021/11/08 12:35:33;;;;;;;15.73;7.00;;;10.60;99.90;;;;;;10355121;28;20202;-80
2021/11/08 12:40:35;;;;;;;11.00;6.40;;;10.60;99.90;;;;;;10389625;28;20645;-80
2021/11/08 12:45:41;;;;;;;13.50;6.50;;;10.60;99.90;;;;;;10393211;28;20690;-81
2021/11/08 12:50:46;;;;;;;10.80;6.00;;;10.60;99.90;;;;;;10377630;28;20258;-81
2021/11/08 12:55:48;;;;;;;11.23;5.30;;;10.60;99.90;;;;;;10398159;28;20222;-81
2021/11/08 13:00:55;;;;;;;13.33;6.90;;;10.60;99.90;;;;;;10393518;28;20241;-80
2021/11/08 13:06:00;;;;;;;11.30;6.30;;;10.70;99.90;;;;;;10361878;28;20261;-81
2021/11/08 13:11:07;;;;;;;9.67;6.00;;;10.70;99.90;;;;;;10393309;28;20304;-81
2021/11/08 13:16:12;;;;;;;9.20;5.90;;;10.70;99.90;;;;;;10377747;28;20199;-81
2021/11/08 13:21:23;;;;;;;14.60;6.00;;;10.70;99.90;;;;;;10397851;28;20739;-80
2021/11/08 13:26:26;;;;;;;10.17;4.93;;;10.80;99.90;;;;;;10365252;28;20234;-80
2021/11/08 13:31:29;;;;;;;12.23;5.67;;;10.80;99.90;;;;;;10398197;28;20290;-80
2021/11/08 13:36:33;;;;;;;13.40;5.10;;;10.80;99.90;;;;;;10387625;28;20203;-81
2021/11/08 13:41:36;;;;;;;11.07;6.00;;;10.90;99.90;;;;;;10340006;28;20645;-81
2021/11/08 13:46:40;;;;;;;11.27;6.10;;;11.00;99.90;;;;;;10391100;28;20236;-80
2021/11/08 13:51:48;;;;;;;10.20;5.90;;;11.20;99.90;;;;;;10370273;28;20237;-80
2021/11/08 13:56:53;;;;;;;13.70;6.63;;;11.40;99.90;;;;;;10378577;28;20214;-80
2021/11/08 14:01:57;;;;;;;13.37;6.83;;;11.40;99.90;;;;;;10356644;28;20247;-81
2021/11/08 14:07:02;;;;;;;7.67;5.57;;;11.50;99.90;;;;;;10375424;28;20238;-80
2021/11/08 14:12:06;;;;;;;11.87;6.07;;;11.50;99.90;;;;;;10354628;28;20230;-81
2021/11/08 14:17:11;;;;;;;7.83;5.03;;;11.40;99.90;;;;;;10380097;28;20211;-80
2021/11/08 14:22:18;;;;;;;10.30;5.57;;;11.40;99.90;;;;;;10396439;28;20222;-81
2021/11/08 14:27:22;;;;;;;7.90;4.30;;;11.30;99.90;;;;;;10359906;28;20230;-80
2021/11/08 14:32:26;;;;;;;9.63;5.20;;;11.30;99.90;;;;;;10366597;28;20226;-81
2021/11/08 14:37:45;;;;;;;9.07;5.70;;;11.30;99.90;;;;;;10362288;28;20206;-80
2021/11/08 14:42:48;;;;;;;6.53;5.30;;;11.30;99.90;;;;;;10356731;28;20246;-80
2021/11/08 14:47:59;;;;;;;7.00;4.93;;;11.40;99.90;;;;;;10386683;28;20232;-81
2021/11/08 14:53:09;;;;;;;8.87;5.87;;;11.40;99.90;;;;;;10390250;28;20229;-80
2021/11/08 14:58:19;;;;;;;8.47;4.77;;;11.40;99.90;;;;;;10375131;28;20202;-81
2021/11/08 15:03:28;;;;;;;7.67;5.40;;;11.40;99.90;;;;;;10375958;28;20234;-80
2021/11/08 15:08:32;;;;;;;6.83;5.10;;;11.40;99.90;;;;;;10385996;28;20270;-81
2021/11/08 15:13:35;;;;;;;5.77;4.40;;;11.40;99.90;;;;;;10389342;28;20635;-81
2021/11/08 15:18:37;;;;;;;5.23;4.17;;;11.30;99.90;;;;;;10375585;28;20229;-80
2021/11/08 15:23:41;;;;;;;9.63;4.40;;;11.20;99.90;;;;;;10366043;28;20250;-81
2021/11/08 15:28:45;;;;;;;8.83;5.00;;;11.20;99.90;;;;;;10348837;28;20233;-81
2021/11/08 15:33:50;;;;;;;7.47;4.77;;;11.10;99.90;;;;;;10360762;28;20317;-81
2021/11/08 15:38:55;;;;;;;6.60;5.00;;;11.00;99.90;;;;;;10374865;28;20265;-80
2021/11/08 15:43:58;;;;;;;7.93;5.13;;;10.90;99.90;;;;;;10360910;28;20257;-81
2021/11/08 15:49:02;;;;;;;7.67;4.80;;;10.90;99.90;;;;;;10350643;28;20313;-81
2021/11/08 15:54:07;;;;;;;10.07;5.27;;;10.80;99.90;;;;;;10371044;28;20322;-81
2021/11/08 15:59:09;;;;;;;6.87;4.80;;;10.60;99.90;;;;;;10382667;28;20195;-80
2021/11/08 16:04:12;;;;;;;8.93;5.30;;;10.40;99.90;;;;;;10363329;28;20265;-80
2021/11/08 16:09:16;;;;;;;9.47;6.03;;;10.20;99.90;;;;;;10342223;28;20281;-81
2021/11/08 16:14:18;;;;;;;8.73;6.67;;;10.00;99.90;;;;;;10348904;28;20309;-80
2021/11/08 16:19:20;;;;;;;6.63;5.93;;;9.90;99.90;;;;;;10388041;28;20210;-80
2021/11/08 16:24:24;;;;;;;8.77;6.10;;;9.70;99.90;;;;;;10368027;28;20222;-80
2021/11/08 16:29:26;;;;;;;8.93;7.57;;;9.60;99.90;;;;;;10350928;28;20273;-80
2021/11/08 16:34:28;;;;;;;10.60;6.20;;;9.50;99.90;;;;;;10363155;28;20233;-80
2021/11/08 16:39:32;;;;;;;11.73;7.10;;;9.40;99.90;;;;;;10353080;28;20214;-80
2021/11/08 16:44:37;;;;;;;12.60;7.83;;;9.30;99.90;;;;;;10370587;28;20258;-81
2021/11/08 16:49:39;;;;;;;12.60;7.87;;;9.20;99.90;;;;;;10370861;28;20210;-80
2021/11/08 16:54:42;;;;;;;12.87;8.23;;;9.10;99.90;;;;;;10393431;28;20219;-81
2021/11/08 16:59:48;;;;;;;11.40;7.03;;;9.10;99.90;;;;;;10357307;28;20237;-80
2021/11/08 17:04:51;;;;;;;15.00;7.17;;;9.00;99.90;;;;;;10386946;28;20252;-80
2021/11/08 17:10:06;;;;;;;11.10;6.70;;;8.90;99.90;;;;;;10382952;28;20206;-82
2021/11/08 17:15:09;;;;;;;10.63;7.50;;;8.90;99.90;;;;;;10379648;28;20265;-80
2021/11/08 17:20:13;;;;;;;13.97;7.37;;;8.80;99.90;;;;;;10381588;28;20240;-80
2021/11/08 17:25:16;;;;;;;14.77;7.47;;;8.80;99.90;;;;;;10381324;28;20603;-80
2021/11/08 17:30:19;;;;;;;14.50;11.27;;;8.80;99.90;;;;;;10376140;28;20237;-80
2021/11/08 17:35:21;;;;;;;20.43;15.27;;;8.80;99.90;;;;;;10381288;28;20277;-80
2021/11/08 17:40:25;;;;;;;14.37;11.10;;;8.80;99.90;;;;;;10381261;28;20214;-80
2021/11/08 17:45:29;;;;;;;12.53;10.97;;;8.70;99.90;;;;;;10379714;28;20682;-80
2021/11/08 17:50:31;;;;;;;12.60;9.00;;;8.80;99.90;;;;;;10390596;28;20207;-80
2021/11/08 17:55:35;;;;;;;10.63;8.83;;;8.80;99.90;;;;;;10361696;28;20210;-80
2021/11/08 18:00:39;;;;;;;13.97;10.33;;;8.80;99.90;;;;;;10355076;28;20675;-80
2021/11/08 18:05:41;;;;;;;11.67;10.03;;;8.80;99.90;;;;;;10360968;28;20321;-80
2021/11/08 18:10:46;;;;;;;13.30;11.87;;;8.80;99.90;;;;;;10355311;28;20231;-80
2021/11/08 18:15:49;;;;;;;16.27;11.60;;;8.80;99.90;;;;;;10341422;28;20682;-80
2021/11/08 18:21:00;;;;;;;14.17;11.87;;;8.90;99.90;;;;;;10362569;28;20222;-80
2021/11/08 18:26:17;;;;;;;10.67;9.00;;;8.90;99.90;;;;;;10362114;28;21021;-80
2021/11/08 18:31:20;;;;;;;15.77;11.37;;;8.90;99.90;;;;;;10356064;28;20357;-80
2021/11/08 18:36:24;;;;;;;17.77;11.70;;;8.90;99.90;;;;;;10358624;28;20675;-80
2021/11/08 18:41:28;;;;;;;11.10;8.23;;;8.90;99.90;;;;;;10363930;28;20234;-80
2021/11/08 18:46:30;;;;;;;13.03;7.50;;;8.80;99.90;;;;;;10364042;28;20342;-80
2021/11/08 18:51:33;;;;;;;10.57;7.07;;;8.80;99.90;;;;;;10364701;28;20269;-80
2021/11/08 18:56:37;;;;;;;11.47;6.80;;;8.70;99.90;;;;;;10361809;28;20292;-80
2021/11/08 19:01:45;;;;;;;7.83;6.80;;;8.60;99.90;;;;;;10363402;28;20258;-80
2021/11/08 19:06:57;;;;;;;8.80;6.60;;;8.50;99.90;;;;;;10377101;28;20229;-80
2021/11/08 19:12:00;;;;;;;9.03;7.47;;;8.50;99.90;;;;;;10375055;28;20218;-81
2021/11/08 19:17:03;;;;;;;11.00;6.50;;;8.40;99.90;;;;;;10342133;28;20209;-80
2021/11/08 19:22:08;;;;;;;8.37;5.83;;;8.40;99.90;;;;;;10337983;28;20263;-80
2021/11/08 19:27:11;;;;;;;7.67;5.97;;;8.30;99.90;;;;;;10323333;28;20625;-80
2021/11/08 19:32:17;;;;;;;13.13;6.27;;;8.20;99.90;;;;;;10337471;28;20229;-80
2021/11/08 19:42:41;;;;;;;9.73;7.00;;;8.00;99.90;;;;;;10339664;28;20744;-80
2021/11/08 19:47:43;;;;;;;10.07;6.90;;;8.00;99.90;;;;;;10344408;28;20210;-80
2021/11/08 19:52:45;;;;;;;9.43;6.23;;;8.00;99.90;;;;;;10357012;28;20330;-80
2021/11/08 19:57:49;;;;;;;10.43;8.17;;;7.90;99.90;;;;;;10327863;28;20593;-80
2021/11/08 20:02:55;;;;;;;11.70;9.17;;;7.90;99.90;;;;;;10326131;28;20665;-80
2021/11/08 20:07:59;;;;;;;13.70;9.47;;;7.90;99.90;;;;;;10368609;28;20710;-80
2021/11/08 20:13:15;;;;;;;9.80;7.67;;;7.90;99.90;;;;;;10325363;28;20977;-80
2021/11/08 20:18:19;;;;;;;12.80;8.00;;;7.90;99.90;;;;;;10356964;28;20549;-80
2021/11/08 20:23:24;;;;;;;10.00;7.57;;;7.90;99.90;;;;;;10355094;28;20226;-80
2021/11/08 20:28:34;;;;;;;7.70;6.90;;;7.90;99.90;;;;;;10312382;28;20234;-80
2021/11/08 20:39:10;;;;;;;10.80;8.37;;;7.80;99.90;;;;;;10318286;28;20206;-80
2021/11/08 20:55:05;;;;;;;9.53;7.53;;;7.70;99.90;;;;;;10606426;27;20221;-80
2021/11/08 21:00:12;;;;;;;9.03;7.40;;;7.60;99.90;;;;;;10635703;27;20555;-79
2021/11/08 21:05:21;;;;;;;9.60;8.10;;;7.40;99.90;;;;;;10643752;27;20750;-79
2021/11/08 21:10:55;;;;;;;10.50;7.67;;;7.40;99.90;;;;;;10655393;27;20205;-79
2021/11/08 21:15:58;;;;;;;10.53;8.20;;;7.40;99.90;;;;;;10653564;27;20209;-79
2021/11/08 21:21:02;;;;;;;8.93;7.33;;;7.40;99.90;;;;;;10637920;27;20229;-80
2021/11/08 21:26:09;;;;;;;13.30;8.60;;;7.40;99.90;;;;;;10656446;27;20597;-80
2021/11/08 21:31:23;;;;;;;11.30;9.37;;;7.40;99.90;;;;;;10635900;27;20225;-80
2021/11/08 21:41:58;;;;;;;11.73;8.20;;;7.40;99.90;;;;;;10609543;27;20308;-80
2021/11/08 21:47:01;;;;;;;8.53;7.60;;;7.40;99.90;;;;;;10636943;27;20219;-80
2021/11/08 21:52:06;;;;;;;13.27;8.23;;;7.30;99.90;;;;;;10637894;27;20221;-80
2021/11/08 21:57:11;;;;;;;8.30;7.00;;;7.30;99.90;;;;;;10644175;27;20781;-80
2021/11/08 22:02:14;;;;;;;13.17;8.47;;;7.30;99.90;;;;;;10627017;27;20221;-80
2021/11/08 22:07:18;;;;;;;9.23;7.10;;;7.30;99.90;;;;;;10626845;27;20218;-80
2021/11/08 22:12:20;;;;;;;7.80;6.93;;;7.30;99.90;;;;;;10611478;27;20214;-80
2021/11/08 22:17:22;;;;;;;12.80;7.90;;;7.20;99.90;;;;;;10628536;27;20206;-80
2021/11/08 22:22:26;;;;;;;7.70;6.53;;;7.20;99.90;;;;;;10608749;27;20932;-80
2021/11/08 22:27:28;;;;;;;9.20;7.40;;;7.10;99.90;;;;;;10609306;27;20233;-80
2021/11/08 22:32:30;;;;;;;9.20;6.97;;;7.10;99.90;;;;;;10622537;27;20225;-80
2021/11/08 22:37:33;;;;;;;10.33;7.20;;;7.20;99.90;;;;;;10626538;27;20646;-80
2021/11/08 22:42:36;;;;;;;7.37;6.67;;;7.20;99.90;;;;;;10622742;27;20210;-80
2021/11/08 22:47:39;;;;;;;10.53;7.50;;;7.20;99.90;;;;;;10626099;27;20231;-80
2021/11/08 22:52:43;;;;;;;7.60;6.73;;;7.20;99.90;;;;;;10601888;27;20219;-80
2021/11/08 22:57:45;;;;;;;10.80;8.70;;;7.10;99.90;;;;;;10622628;27;20198;-80
2021/11/08 23:02:56;;;;;;;11.93;9.43;;;7.20;99.90;;;;;;10603093;27;20230;-80
2021/11/08 23:08:02;;;;;;;17.40;9.93;;;7.20;99.90;;;;;;10623713;27;20720;-80
2021/11/08 23:13:10;;;;;;;11.40;9.30;;;7.20;99.90;;;;;;10617477;27;20210;-80
2021/11/08 23:18:13;;;;;;;13.70;9.13;;;7.20;99.90;;;;;;10613336;27;20189;-80
2021/11/08 23:23:16;;;;;;;13.60;9.63;;;7.20;99.90;;;;;;10604512;27;20218;-80
2021/11/08 23:28:20;;;;;;;11.53;9.50;;;7.20;99.90;;;;;;10619534;27;20219;-80
2021/11/08 23:33:27;;;;;;;13.50;9.97;;;7.10;99.90;;;;;;10618493;27;20593;-80
2021/11/08 23:38:30;;;;;;;14.83;10.00;;;7.00;99.90;;;;;;10618141;27;20511;-80
2021/11/08 23:43:33;;;;;;;11.67;10.33;;;7.00;99.90;;;;;;10618916;27;20246;-80
2021/11/08 23:48:36;;;;;;;10.20;9.23;;;6.90;99.90;;;;;;10595674;27;20678;-80
2021/11/08 23:53:41;;;;;;;11.80;10.57;;;6.90;99.90;;;;;;10616399;27;20259;-80
2021/11/08 23:58:43;;;;;;;13.93;10.77;;;6.90;99.90;;;;;;10601419;27;20237;-80
